Flight Track Log - Related Links

Times and Time Zones

All times are in EDT time to prevent confusion due to time zone crossing. See the BOE1 flight status page for this flight to view local times or setup timezone preferences in your user account.

Time Position Orientation Groundspeed Altitude Reporting Facility
EDT Latitude Longitude Course Direction KTS MPH feet Rate Location/Type
Sun 08:13:40 PM 47.6219 -119.0489 76° East 202 232 13,900  Level Seattle Center
Sun 08:14:41 PM 47.6333 -118.9819 76° East 178 205 12,100 -590 Descending Seattle Center
Sun 08:15:42 PM 47.6539 -118.9033 69° East 205 236 12,700 984 Climbing Seattle Center
Sun 08:16:43 PM 47.6819 -118.8103 66° East 254 292 14,100 1,512 Climbing Seattle Center
Sun 08:17:45 PM 47.7308 -118.7611 34° Northeast 239 275 15,800 585 Climbing Seattle Center
Sun 08:18:46 PM 47.7803 -118.8028 330° Northwest 203 234 15,300 -836 Descending Seattle Center
Sun 08:19:47 PM 47.8242 -118.8489 325° Northwest 193 222 14,100 -1,525 Descending Seattle Center
Sun 08:20:48 PM 47.8586 -118.8917 320° Northwest 166 191 12,200 -246 Descending Seattle Center
Sun 08:21:49 PM 47.9089 -118.9669 315° West 215 247 13,600 1,475 Climbing Seattle Center
Sun 08:22:50 PM 47.9489 -119.0403 309° West 226 260 15,200 984 Climbing Seattle Center
Sun 08:23:51 PM 47.9925 -119.1089 314° West 227 261 15,600 -344 Climbing Seattle Center
Sun 08:24:52 PM 48.0067 -119.1939 284° West 213 245 14,500 -942 Descending Seattle Center
Sun 08:25:52 PM 48.0208 -119.2731 285° West 200 230 13,700 -1,041 Descending Seattle Center
Sun 08:26:53 PM 48.0317 -119.3431 283° West 177 204 12,400 -148 Descending Seattle Center
Sun 08:27:54 PM 48.0439 -119.4353 281° West 221 254 13,400 1,279 Climbing Seattle Center
Sun 08:28:55 PM 48.0553 -119.5378 279° West 245 282 15,000 984 Climbing Seattle Center
Sun 08:29:56 PM 48.0667 -119.6306 280° West 230 265 15,400 -344 Climbing Seattle Center
Sun 08:30:57 PM 48.0806 -119.7178 283° West 217 250 14,300 -1,623 Descending Seattle Center
Sun 08:31:58 PM 48.0917 -119.7872 283° West 176 203 12,100 -787 Descending Seattle Center
Sun 08:32:59 PM 48.0942 -119.8800 272° West 226 260 12,700 1,279 Climbing Seattle Center
Sun 08:34:00 PM 48.0175 -119.8528 167° South 270 311 14,700 1,475 Climbing Seattle Center
Sun 08:35:01 PM 47.9708 -119.7692 130° Southeast 262 302 15,700 49 Climbing Seattle Center
Sun 08:36:02 PM 47.9244 -119.6872 130° Southeast 259 298 14,800 -1,131 Descending Seattle Center
Sun 08:37:03 PM 47.8778 -119.6083 131° Southeast 254 292 13,400 -344 Descending Seattle Center
Sun 08:38:04 PM 47.8269 -119.5275 133° Southeast 249 287 14,100 934 Climbing Seattle Center
Sun 08:39:05 PM 47.7808 -119.4492 131° Southeast 252 290 15,300 98 Climbing Seattle Center
Sun 08:40:06 PM 47.7342 -119.3700 131° Southeast 255 293 14,300 -738 Descending Seattle Center
Sun 08:41:07 PM 47.6939 -119.3022 131° Southeast 220 253 13,800 -1,131 Descending Seattle Center
Sun 08:42:08 PM 47.6567 -119.2328 128° Southeast 231 266 12,000 -492 Descending Seattle Center
Sun 08:43:09 PM 47.6406 -119.1442 105° East 246 283 12,800 934 Climbing Seattle Center
Sun 08:44:10 PM 47.7022 -119.1450 359° North 263 303 13,900 1,279 Climbing Seattle Center
Sun 08:45:11 PM 47.7461 -119.2625 299° West 285 328 15,400 197 Climbing Seattle Center
Sun 08:46:12 PM 47.7850 -119.3775 297° West 292 336 14,300 -645 Descending Seattle Center
Sun 08:47:12 PM 47.8125 -119.4747 293° West 260 299 14,100 -1,190 Descending Seattle Center
Sun 08:48:13 PM 47.8350 -119.5717 289° West 260 299 11,900 -836 Descending Seattle Center
Sun 08:49:14 PM 47.8578 -119.6786 288° West 270 311 12,400 1,180 Climbing Seattle Center
Sun 08:50:15 PM 47.8678 -119.7928 277° West 284 327 14,300 1,574 Climbing Seattle Center
Sun 08:51:16 PM 47.8636 -119.9111 267° West 290 334 15,600 787 Climbing Seattle Center
Sun 08:52:17 PM 47.8653 -120.0317 271° West 291 335 15,900 148 Climbing Seattle Center
Sun 08:53:18 PM 47.8661 -120.1511 271° West 288 331 15,900  Level Seattle Center
Sun 08:54:19 PM 47.8644 -120.2731 269° West 295 339 15,900  Level Seattle Center
Sun 08:55:20 PM 47.8639 -120.3944 270° West 296 341 15,900  Level Seattle Center
Sun 08:56:21 PM 47.8647 -120.5164 271° West 296 341 15,900 -49 Level Seattle Center
Sun 08:57:22 PM 47.8650 -120.6408 270° West 299 344 15,800 -49 Descending Seattle Center
Sun 08:58:23 PM 47.8619 -120.7658 268° West 302 348 15,800 -197 Level Seattle Center
Sun 08:59:24 PM 47.8600 -120.9047 269° West 297 342 15,400 -893 Descending Seattle Center
Sun 09:00:24 PM 47.8561 -121.0300 267° West 303 349 14,000 -1,339 Descending Seattle Center
Sun 09:01:25 PM 47.8536 -121.1478 268° West 287 330 12,700 -1,279 Descending Seattle Center
Sun 09:02:26 PM 47.8572 -121.2650 273° West 283 326 11,400 -1,109 Descending Seattle Center
Sun 09:02:57 PM 47.8633 -121.3336 278° West 275 316 11,000 -353 Descending Seattle Center
Sun 09:03:34 PM 47.8681 -121.4039 276° West 276 318 11,000 -264 Level Seattle Center
Sun 09:04:28 PM 47.8731 -121.4908 275° West 274 315 10,600 -806 Descending Seattle Center
Sun 09:04:41 PM 47.8753 -121.5258 275° West 275 316 10,100 -590 Descending Seattle Center
Sun 09:05:29 PM 47.8781 -121.6025 273° West 270 311 10,000 -109 Descending Seattle Center
Sun 09:05:36 PM 47.8797 -121.6292 275° West 271 312 10,000 -197 Level Seattle Center
Sun 09:06:30 PM 47.8808 -121.7158 271° West 275 316 9,800 -492 Descending Seattle Center
Sun 09:06:37 PM 47.8822 -121.7506 273° West 273 314 9,500 -1,279 Descending Seattle Center
Sun 09:07:31 PM 47.8844 -121.8478 272° West 268 308 8,500 -1,180 Descending Seattle Center
Sun 09:07:38 PM 47.8858 -121.8611 279° West 270 311 8,300 -1,400 Descending Seattle Center
Sun 09:08:31 PM 47.8794 -121.9558 264° West 271 312 7,100 -1,364 Descending Seattle Center
Sun 09:08:44 PM 47.8681 -121.9739 227° Southwest 280 322 6,800 -1,120 Descending Seattle Center
Sun 09:09:46 PM 47.8175 -122.0550 227° Southwest 256 295 5,700 -991 Descending Seattle Center
Sun 09:10:33 PM 47.8056 -122.1283 256° West 246 283 5,000 -700 Descending Seattle Center
Sun 09:10:46 PM 47.8042 -122.1517 265° West 241 277 5,000 -393 Level Seattle Center
Sun 09:11:34 PM 47.7989 -122.2269 264° West 240 276 4,600 -689 Descending Seattle Center
Sun 09:11:47 PM 47.7969 -122.2547 264° West 241 277 4,300 -1,082 Descending Seattle Center
Sun 09:12:35 PM 47.7897 -122.3233 261° West 237 273 3,500 -885 Descending Seattle Center
Sun 09:12:48 PM 47.7811 -122.3428 237° Southwest 235 270 3,400 -689 Descending Seattle Center
Sun 09:13:36 PM 47.7506 -122.4011 232° Southwest 218 251 2,800 -689 Descending Seattle Center
Sun 09:13:49 PM 47.7453 -122.4119 234° Southwest 203 234 2,700 -492 Descending Seattle Center
Sun 09:14:37 PM 47.7064 -122.4292 197° South 184 212 2,300 -545 Descending Seattle Center
Sun 09:14:44 PM 47.7017 -122.4328 207° Southwest 191 220 2,200 -100 Descending Seattle Center
Sun 09:15:37 PM 47.6572 -122.4119 162° South 185 213 2,200  Level Seattle Center
Sun 09:15:45 PM 47.6531 -122.4069 141° Southeast 176 203 2,200 -441 Level Seattle Center
Sun 09:16:45 PM 47.6100 -122.3683 149° Southeast 175 201 1,700 -737 Descending Seattle Center
Sun 09:17:39 PM 47.5733 -122.3394 152° Southeast 174 200 800 -968 Descending Seattle Center
Sun 09:17:47 PM 47.5683 -122.3353 151° Southeast 174 200 700 -618 Descending Seattle Center
Sun 09:18:47 PM 47.5258 -122.2997 151° Southeast 170 196 100 -316 Descending Seattle Center
Sun 09:19:41 PM 47.4953 -122.2719 148° Southeast 171 197 100  Level Seattle Center
Sun 09:21:00 PM 47.5167 -122.3000 326° Northwest  Level FlightAware Approximate
Sun 09:28:00 PM 47.5300 -122.3020 326° Northwest  Level Estimated
Sun 09:29:00 PM 47.5300 -122.3020 326° Northwest  Level Estimated
Sun 09:30:00 PM 47.5300 -122.3020 326° Northwest  Level Estimated
Sun 09:31:00 PM 47.5300 -122.3020 326° Northwest  Level Estimated
Sun 09:32:00 PM 47.5300 -122.3020 326° Northwest  Level Estimated
Sun 09:33:00 PM 47.5300 -122.3020 326° Northwest  Level Estimated
Sun 09:34:00 PM 47.5300 -122.3020 326° Northwest  Level Estimated
Sun 09:35:00 PM 47.5300 -122.3020 326° Northwest  Level Estimated
Sun 09:36:00 PM 47.5300 -122.3020 326° Northwest  Level Estimated

Login

Don't have an account? Register now (free) for customized features, flight alerts, and more!